sensor_id;sensor_type;location;lat;lon;timestamp;P1;durP1;ratioP1;P2;durP2;ratioP2
11531;SDS011;5822;51.000;5.874;2023-10-08T00:01:52;14.30;;;13.60;;
11531;SDS011;5822;51.000;5.874;2023-10-08T00:04:20;14.40;;;13.70;;
11531;SDS011;5822;51.000;5.874;2023-10-08T00:06:46;14.60;;;13.80;;
11531;SDS011;5822;51.000;5.874;2023-10-08T00:09:12;13.97;;;13.27;;
11531;SDS011;5822;51.000;5.874;2023-10-08T00:11:39;14.77;;;13.98;;
11531;SDS011;5822;51.000;5.874;2023-10-08T00:14:06;14.80;;;14.00;;
11531;SDS011;5822;51.000;5.874;2023-10-08T00:16:35;14.00;;;13.30;;
11531;SDS011;5822;51.000;5.874;2023-10-08T00:19:05;14.30;;;13.50;;
11531;SDS011;5822;51.000;5.874;2023-10-08T00:21:38;14.00;;;13.30;;
11531;SDS011;5822;51.000;5.874;2023-10-08T00:24:04;14.23;;;13.53;;
11531;SDS011;5822;51.000;5.874;2023-10-08T00:26:34;14.10;;;13.40;;
11531;SDS011;5822;51.000;5.874;2023-10-08T00:29:05;14.15;;;13.45;;
11531;SDS011;5822;51.000;5.874;2023-10-08T00:31:40;14.15;;;13.45;;
11531;SDS011;5822;51.000;5.874;2023-10-08T00:34:06;13.90;;;13.20;;
11531;SDS011;5822;51.000;5.874;2023-10-08T00:36:42;14.00;;;13.30;;
11531;SDS011;5822;51.000;5.874;2023-10-08T00:39:09;13.80;;;13.10;;
11531;SDS011;5822;51.000;5.874;2023-10-08T00:41:42;14.27;;;13.57;;
11531;SDS011;5822;51.000;5.874;2023-10-08T00:44:11;14.40;;;13.60;;
11531;SDS011;5822;51.000;5.874;2023-10-08T00:46:47;14.07;;;13.38;;
11531;SDS011;5822;51.000;5.874;2023-10-08T00:49:23;14.60;;;13.80;;
11531;SDS011;5822;51.000;5.874;2023-10-08T00:51:53;14.40;;;13.70;;
11531;SDS011;5822;51.000;5.874;2023-10-08T00:54:28;14.45;;;13.75;;
11531;SDS011;5822;51.000;5.874;2023-10-08T00:56:57;14.17;;;13.47;;
11531;SDS011;5822;51.000;5.874;2023-10-08T00:59:27;14.35;;;13.55;;
11531;SDS011;5822;51.000;5.874;2023-10-08T01:01:58;13.70;;;13.00;;
11531;SDS011;5822;51.000;5.874;2023-10-08T01:04:29;13.90;;;13.20;;
11531;SDS011;5822;51.000;5.874;2023-10-08T01:06:59;14.10;;;13.40;;
11531;SDS011;5822;51.000;5.874;2023-10-08T01:09:27;13.80;;;13.10;;
11531;SDS011;5822;51.000;5.874;2023-10-08T01:12:18;14.47;;;13.77;;
11531;SDS011;5822;51.000;5.874;2023-10-08T01:15:04;14.80;;;14.00;;
11531;SDS011;5822;51.000;5.874;2023-10-08T01:18:03;14.75;;;14.05;;
11531;SDS011;5822;51.000;5.874;2023-10-08T01:20:31;15.00;;;14.20;;
11531;SDS011;5822;51.000;5.874;2023-10-08T01:25:29;14.50;;;13.80;;
11531;SDS011;5822;51.000;5.874;2023-10-08T01:27:58;14.30;;;13.60;;
11531;SDS011;5822;51.000;5.874;2023-10-08T01:30:33;14.20;;;13.50;;
11531;SDS011;5822;51.000;5.874;2023-10-08T01:33:06;14.18;;;13.48;;
11531;SDS011;5822;51.000;5.874;2023-10-08T01:35:36;15.48;;;14.60;;
11531;SDS011;5822;51.000;5.874;2023-10-08T01:38:02;15.10;;;14.30;;
11531;SDS011;5822;51.000;5.874;2023-10-08T01:40:28;14.90;;;14.10;;
11531;SDS011;5822;51.000;5.874;2023-10-08T01:42:55;14.57;;;13.87;;
11531;SDS011;5822;51.000;5.874;2023-10-08T01:45:29;14.63;;;13.90;;
11531;SDS011;5822;51.000;5.874;2023-10-08T01:47:57;14.60;;;13.90;;
11531;SDS011;5822;51.000;5.874;2023-10-08T01:50:23;14.43;;;13.73;;
11531;SDS011;5822;51.000;5.874;2023-10-08T01:52:54;14.23;;;13.52;;
11531;SDS011;5822;51.000;5.874;2023-10-08T01:55:20;13.93;;;13.23;;
11531;SDS011;5822;51.000;5.874;2023-10-08T01:57:48;14.02;;;13.32;;
11531;SDS011;5822;51.000;5.874;2023-10-08T02:00:16;14.33;;;13.60;;
11531;SDS011;5822;51.000;5.874;2023-10-08T02:02:47;14.30;;;13.60;;
11531;SDS011;5822;51.000;5.874;2023-10-08T02:05:17;14.50;;;13.80;;
11531;SDS011;5822;51.000;5.874;2023-10-08T02:07:46;14.80;;;14.00;;
11531;SDS011;5822;51.000;5.874;2023-10-08T02:10:13;14.25;;;13.55;;
11531;SDS011;5822;51.000;5.874;2023-10-08T02:12:39;14.70;;;13.90;;
11531;SDS011;5822;51.000;5.874;2023-10-08T02:15:06;15.02;;;14.23;;
11531;SDS011;5822;51.000;5.874;2023-10-08T02:17:33;14.50;;;13.80;;
11531;SDS011;5822;51.000;5.874;2023-10-08T02:19:58;14.95;;;14.15;;
11531;SDS011;5822;51.000;5.874;2023-10-08T02:22:24;14.43;;;13.73;;
11531;SDS011;5822;51.000;5.874;2023-10-08T02:24:50;14.80;;;14.00;;
11531;SDS011;5822;51.000;5.874;2023-10-08T02:27:18;14.30;;;13.60;;
11531;SDS011;5822;51.000;5.874;2023-10-08T02:29:44;14.82;;;14.02;;
11531;SDS011;5822;51.000;5.874;2023-10-08T02:32:10;14.38;;;13.68;;
11531;SDS011;5822;51.000;5.874;2023-10-08T02:34:35;14.45;;;13.75;;
11531;SDS011;5822;51.000;5.874;2023-10-08T02:37:01;14.70;;;13.90;;
11531;SDS011;5822;51.000;5.874;2023-10-08T02:39:28;14.55;;;13.85;;
11531;SDS011;5822;51.000;5.874;2023-10-08T02:41:57;15.00;;;14.20;;
11531;SDS011;5822;51.000;5.874;2023-10-08T02:44:26;14.40;;;13.70;;
11531;SDS011;5822;51.000;5.874;2023-10-08T02:46:52;14.20;;;13.50;;
11531;SDS011;5822;51.000;5.874;2023-10-08T02:49:19;14.40;;;13.70;;
11531;SDS011;5822;51.000;5.874;2023-10-08T02:51:48;13.85;;;13.15;;
11531;SDS011;5822;51.000;5.874;2023-10-08T02:54:19;14.30;;;13.60;;
11531;SDS011;5822;51.000;5.874;2023-10-08T02:56:51;14.55;;;13.85;;
11531;SDS011;5822;51.000;5.874;2023-10-08T02:59:20;14.40;;;13.70;;
11531;SDS011;5822;51.000;5.874;2023-10-08T03:01:47;14.60;;;13.80;;
11531;SDS011;5822;51.000;5.874;2023-10-08T03:04:14;14.40;;;13.70;;
11531;SDS011;5822;51.000;5.874;2023-10-08T03:06:47;14.52;;;13.80;;
11531;SDS011;5822;51.000;5.874;2023-10-08T03:09:22;14.15;;;13.45;;
11531;SDS011;5822;51.000;5.874;2023-10-08T03:11:56;14.15;;;13.38;;
11531;SDS011;5822;51.000;5.874;2023-10-08T03:14:23;14.00;;;13.30;;
11531;SDS011;5822;51.000;5.874;2023-10-08T03:16:51;14.35;;;13.55;;
11531;SDS011;5822;51.000;5.874;2023-10-08T03:19:18;14.05;;;13.35;;
11531;SDS011;5822;51.000;5.874;2023-10-08T03:21:46;14.70;;;13.90;;
11531;SDS011;5822;51.000;5.874;2023-10-08T03:24:21;14.40;;;13.70;;
11531;SDS011;5822;51.000;5.874;2023-10-08T03:26:59;14.30;;;13.60;;
11531;SDS011;5822;51.000;5.874;2023-10-08T03:29:35;14.52;;;13.73;;
11531;SDS011;5822;51.000;5.874;2023-10-08T03:32:13;14.43;;;13.73;;
11531;SDS011;5822;51.000;5.874;2023-10-08T03:34:46;14.75;;;13.95;;
11531;SDS011;5822;51.000;5.874;2023-10-08T03:37:18;14.20;;;13.50;;
11531;SDS011;5822;51.000;5.874;2023-10-08T03:39:49;14.13;;;13.43;;
11531;SDS011;5822;51.000;5.874;2023-10-08T03:42:34;14.35;;;13.65;;
11531;SDS011;5822;51.000;5.874;2023-10-08T03:45:06;14.32;;;13.63;;
11531;SDS011;5822;51.000;5.874;2023-10-08T03:47:41;14.15;;;13.45;;
11531;SDS011;5822;51.000;5.874;2023-10-08T03:50:11;14.40;;;13.60;;
11531;SDS011;5822;51.000;5.874;2023-10-08T03:52:41;14.20;;;13.50;;
11531;SDS011;5822;51.000;5.874;2023-10-08T03:55:10;14.27;;;13.50;;
11531;SDS011;5822;51.000;5.874;2023-10-08T03:57:47;14.20;;;13.50;;
11531;SDS011;5822;51.000;5.874;2023-10-08T04:00:21;14.18;;;13.48;;
11531;SDS011;5822;51.000;5.874;2023-10-08T04:02:56;14.50;;;13.80;;
11531;SDS011;5822;51.000;5.874;2023-10-08T04:05:26;14.30;;;13.60;;
11531;SDS011;5822;51.000;5.874;2023-10-08T04:08:05;14.13;;;13.43;;
11531;SDS011;5822;51.000;5.874;2023-10-08T04:10:42;13.85;;;13.15;;
11531;SDS011;5822;51.000;5.874;2023-10-08T04:13:08;14.00;;;13.30;;
11531;SDS011;5822;51.000;5.874;2023-10-08T04:15:38;14.27;;;13.57;;
11531;SDS011;5822;51.000;5.874;2023-10-08T04:18:07;14.23;;;13.53;;
11531;SDS011;5822;51.000;5.874;2023-10-08T04:20:33;14.50;;;13.70;;
11531;SDS011;5822;51.000;5.874;2023-10-08T04:23:17;13.98;;;13.27;;
11531;SDS011;5822;51.000;5.874;2023-10-08T04:25:48;14.27;;;13.57;;
11531;SDS011;5822;51.000;5.874;2023-10-08T04:28:19;14.13;;;13.43;;
11531;SDS011;5822;51.000;5.874;2023-10-08T04:30:46;14.10;;;13.40;;
11531;SDS011;5822;51.000;5.874;2023-10-08T04:33:15;14.33;;;13.63;;
11531;SDS011;5822;51.000;5.874;2023-10-08T04:35:44;14.30;;;13.60;;
11531;SDS011;5822;51.000;5.874;2023-10-08T04:38:17;14.30;;;13.60;;
11531;SDS011;5822;51.000;5.874;2023-10-08T04:40:46;14.17;;;13.47;;
11531;SDS011;5822;51.000;5.874;2023-10-08T04:43:19;14.35;;;13.60;;
11531;SDS011;5822;51.000;5.874;2023-10-08T04:45:58;14.35;;;13.65;;
11531;SDS011;5822;51.000;5.874;2023-10-08T04:48:53;14.07;;;13.38;;
11531;SDS011;5822;51.000;5.874;2023-10-08T04:51:20;13.90;;;13.20;;
11531;SDS011;5822;51.000;5.874;2023-10-08T04:53:48;14.25;;;13.48;;
11531;SDS011;5822;51.000;5.874;2023-10-08T04:56:14;14.60;;;13.80;;
11531;SDS011;5822;51.000;5.874;2023-10-08T04:58:43;14.10;;;13.40;;
11531;SDS011;5822;51.000;5.874;2023-10-08T05:01:12;14.10;;;13.40;;
11531;SDS011;5822;51.000;5.874;2023-10-08T05:03:57;14.10;;;13.40;;
11531;SDS011;5822;51.000;5.874;2023-10-08T05:06:33;14.00;;;13.30;;
11531;SDS011;5822;51.000;5.874;2023-10-08T05:09:00;14.07;;;13.38;;
11531;SDS011;5822;51.000;5.874;2023-10-08T05:11:55;13.80;;;13.10;;
11531;SDS011;5822;51.000;5.874;2023-10-08T05:14:35;13.77;;;13.10;;
11531;SDS011;5822;51.000;5.874;2023-10-08T05:17:10;13.90;;;13.20;;
11531;SDS011;5822;51.000;5.874;2023-10-08T05:19:47;13.95;;;13.25;;
11531;SDS011;5822;51.000;5.874;2023-10-08T05:22:21;14.10;;;13.40;;
11531;SDS011;5822;51.000;5.874;2023-10-08T05:24:53;13.90;;;13.20;;
11531;SDS011;5822;51.000;5.874;2023-10-08T05:27:36;14.13;;;13.43;;
11531;SDS011;5822;51.000;5.874;2023-10-08T05:30:27;13.60;;;13.00;;
11531;SDS011;5822;51.000;5.874;2023-10-08T05:33:07;13.50;;;12.80;;
11531;SDS011;5822;51.000;5.874;2023-10-08T05:35:34;13.35;;;12.75;;
11531;SDS011;5822;51.000;5.874;2023-10-08T05:38:07;13.70;;;13.00;;
11531;SDS011;5822;51.000;5.874;2023-10-08T05:40:46;13.90;;;13.20;;
11531;SDS011;5822;51.000;5.874;2023-10-08T05:43:21;13.80;;;13.10;;
11531;SDS011;5822;51.000;5.874;2023-10-08T05:46:05;14.10;;;13.40;;
11531;SDS011;5822;51.000;5.874;2023-10-08T05:49:04;14.03;;;13.33;;
11531;SDS011;5822;51.000;5.874;2023-10-08T05:51:33;14.00;;;13.30;;
11531;SDS011;5822;51.000;5.874;2023-10-08T05:54:13;14.00;;;13.30;;
11531;SDS011;5822;51.000;5.874;2023-10-08T05:56:52;14.23;;;13.52;;
11531;SDS011;5822;51.000;5.874;2023-10-08T05:59:43;14.30;;;13.60;;
11531;SDS011;5822;51.000;5.874;2023-10-08T06:05:04;15.68;;;14.88;;
11531;SDS011;5822;51.000;5.874;2023-10-08T06:10:21;16.33;;;15.52;;
11531;SDS011;5822;51.000;5.874;2023-10-08T06:13:04;16.13;;;15.32;;
11531;SDS011;5822;51.000;5.874;2023-10-08T06:15:41;15.75;;;14.95;;
11531;SDS011;5822;51.000;5.874;2023-10-08T06:18:21;15.80;;;15.00;;
11531;SDS011;5822;51.000;5.874;2023-10-08T06:20:55;15.32;;;14.63;;
11531;SDS011;5822;51.000;5.874;2023-10-08T06:23:23;15.67;;;14.87;;
11531;SDS011;5822;51.000;5.874;2023-10-08T06:25:50;15.60;;;14.80;;
11531;SDS011;5822;51.000;5.874;2023-10-08T06:28:36;15.95;;;15.15;;
11531;SDS011;5822;51.000;5.874;2023-10-08T06:31:03;15.60;;;14.80;;
11531;SDS011;5822;51.000;5.874;2023-10-08T06:33:37;16.03;;;15.23;;
11531;SDS011;5822;51.000;5.874;2023-10-08T06:36:04;15.85;;;15.05;;
11531;SDS011;5822;51.000;5.874;2023-10-08T06:41:20;15.90;;;15.10;;
11531;SDS011;5822;51.000;5.874;2023-10-08T06:43:56;16.08;;;15.27;;
11531;SDS011;5822;51.000;5.874;2023-10-08T06:46:28;15.85;;;15.05;;
11531;SDS011;5822;51.000;5.874;2023-10-08T06:49:02;15.75;;;14.95;;
11531;SDS011;5822;51.000;5.874;2023-10-08T06:51:28;16.10;;;15.30;;
11531;SDS011;5822;51.000;5.874;2023-10-08T06:53:55;16.27;;;15.48;;
11531;SDS011;5822;51.000;5.874;2023-10-08T06:56:25;15.80;;;15.00;;
11531;SDS011;5822;51.000;5.874;2023-10-08T06:58:50;16.03;;;15.23;;
11531;SDS011;5822;51.000;5.874;2023-10-08T07:01:19;16.15;;;15.35;;
11531;SDS011;5822;51.000;5.874;2023-10-08T07:03:54;16.30;;;15.50;;
11531;SDS011;5822;51.000;5.874;2023-10-08T07:06:28;16.27;;;15.48;;
11531;SDS011;5822;51.000;5.874;2023-10-08T07:08:59;16.30;;;15.50;;
11531;SDS011;5822;51.000;5.874;2023-10-08T07:11:30;16.60;;;15.80;;
11531;SDS011;5822;51.000;5.874;2023-10-08T07:14:03;16.30;;;15.50;;
11531;SDS011;5822;51.000;5.874;2023-10-08T07:16:32;16.63;;;15.82;;
11531;SDS011;5822;51.000;5.874;2023-10-08T07:18:57;16.83;;;15.93;;
11531;SDS011;5822;51.000;5.874;2023-10-08T07:21:28;16.85;;;15.95;;
11531;SDS011;5822;51.000;5.874;2023-10-08T07:23:57;17.00;;;16.10;;
11531;SDS011;5822;51.000;5.874;2023-10-08T07:26:25;16.23;;;15.43;;
11531;SDS011;5822;51.000;5.874;2023-10-08T07:29:00;16.80;;;15.90;;
11531;SDS011;5822;51.000;5.874;2023-10-08T07:31:32;17.25;;;16.35;;
11531;SDS011;5822;51.000;5.874;2023-10-08T07:33:59;16.52;;;15.63;;
11531;SDS011;5822;51.000;5.874;2023-10-08T07:36:40;16.67;;;15.87;;
11531;SDS011;5822;51.000;5.874;2023-10-08T07:39:07;16.80;;;16.00;;
11531;SDS011;5822;51.000;5.874;2023-10-08T07:41:45;17.00;;;16.10;;
11531;SDS011;5822;51.000;5.874;2023-10-08T07:44:12;16.73;;;15.93;;
11531;SDS011;5822;51.000;5.874;2023-10-08T07:46:37;16.65;;;15.85;;
11531;SDS011;5822;51.000;5.874;2023-10-08T07:49:03;16.70;;;15.80;;
11531;SDS011;5822;51.000;5.874;2023-10-08T07:51:30;16.50;;;15.70;;
11531;SDS011;5822;51.000;5.874;2023-10-08T07:53:55;16.87;;;15.97;;
11531;SDS011;5822;51.000;5.874;2023-10-08T07:56:22;16.98;;;16.08;;
11531;SDS011;5822;51.000;5.874;2023-10-08T07:58:48;17.23;;;16.33;;
11531;SDS011;5822;51.000;5.874;2023-10-08T08:01:14;17.67;;;16.70;;
11531;SDS011;5822;51.000;5.874;2023-10-08T08:03:40;16.70;;;15.90;;
11531;SDS011;5822;51.000;5.874;2023-10-08T08:06:07;17.02;;;16.13;;
11531;SDS011;5822;51.000;5.874;2023-10-08T08:08:37;17.10;;;16.20;;
11531;SDS011;5822;51.000;5.874;2023-10-08T08:11:07;16.58;;;15.68;;
11531;SDS011;5822;51.000;5.874;2023-10-08T08:13:42;16.73;;;15.82;;
11531;SDS011;5822;51.000;5.874;2023-10-08T08:16:12;16.85;;;15.95;;
11531;SDS011;5822;51.000;5.874;2023-10-08T08:18:46;16.80;;;15.90;;
11531;SDS011;5822;51.000;5.874;2023-10-08T08:21:14;16.37;;;15.57;;
11531;SDS011;5822;51.000;5.874;2023-10-08T08:23:43;16.52;;;15.73;;
11531;SDS011;5822;51.000;5.874;2023-10-08T08:26:13;16.70;;;15.80;;
11531;SDS011;5822;51.000;5.874;2023-10-08T08:28:53;16.88;;;15.98;;
11531;SDS011;5822;51.000;5.874;2023-10-08T08:31:20;16.88;;;15.98;;
11531;SDS011;5822;51.000;5.874;2023-10-08T08:33:46;16.77;;;15.88;;
11531;SDS011;5822;51.000;5.874;2023-10-08T08:36:18;16.45;;;15.55;;
11531;SDS011;5822;51.000;5.874;2023-10-08T08:38:47;16.65;;;15.85;;
11531;SDS011;5822;51.000;5.874;2023-10-08T08:41:13;16.60;;;15.70;;
11531;SDS011;5822;51.000;5.874;2023-10-08T08:43:43;16.63;;;15.73;;
11531;SDS011;5822;51.000;5.874;2023-10-08T08:46:12;17.77;;;16.77;;
11531;SDS011;5822;51.000;5.874;2023-10-08T08:48:41;17.13;;;16.23;;
11531;SDS011;5822;51.000;5.874;2023-10-08T08:51:11;17.85;;;16.85;;
11531;SDS011;5822;51.000;5.874;2023-10-08T08:53:38;17.63;;;16.63;;
11531;SDS011;5822;51.000;5.874;2023-10-08T08:56:08;18.20;;;17.20;;
11531;SDS011;5822;51.000;5.874;2023-10-08T08:58:35;18.20;;;17.20;;
11531;SDS011;5822;51.000;5.874;2023-10-08T09:01:03;17.40;;;16.50;;
11531;SDS011;5822;51.000;5.874;2023-10-08T09:03:33;17.77;;;16.85;;
11531;SDS011;5822;51.000;5.874;2023-10-08T09:05:59;17.05;;;16.15;;
11531;SDS011;5822;51.000;5.874;2023-10-08T09:08:28;17.45;;;16.55;;
11531;SDS011;5822;51.000;5.874;2023-10-08T09:10:58;18.83;;;17.73;;
11531;SDS011;5822;51.000;5.874;2023-10-08T09:13:30;17.73;;;16.83;;
11531;SDS011;5822;51.000;5.874;2023-10-08T09:16:07;17.47;;;16.57;;
11531;SDS011;5822;51.000;5.874;2023-10-08T09:18:36;17.75;;;16.85;;
11531;SDS011;5822;51.000;5.874;2023-10-08T09:21:13;18.23;;;17.23;;
11531;SDS011;5822;51.000;5.874;2023-10-08T09:23:43;18.02;;;17.02;;
11531;SDS011;5822;51.000;5.874;2023-10-08T09:26:12;17.90;;;16.90;;
11531;SDS011;5822;51.000;5.874;2023-10-08T09:28:48;18.00;;;17.00;;
11531;SDS011;5822;51.000;5.874;2023-10-08T09:31:16;17.95;;;16.95;;
11531;SDS011;5822;51.000;5.874;2023-10-08T09:33:45;18.00;;;17.00;;
11531;SDS011;5822;51.000;5.874;2023-10-08T09:36:19;17.40;;;16.50;;
11531;SDS011;5822;51.000;5.874;2023-10-08T09:38:45;17.38;;;16.48;;
11531;SDS011;5822;51.000;5.874;2023-10-08T09:41:13;17.38;;;16.48;;
11531;SDS011;5822;51.000;5.874;2023-10-08T09:43:40;17.50;;;16.50;;
11531;SDS011;5822;51.000;5.874;2023-10-08T09:46:15;17.55;;;16.58;;
11531;SDS011;5822;51.000;5.874;2023-10-08T09:48:50;17.23;;;16.25;;
11531;SDS011;5822;51.000;5.874;2023-10-08T09:51:18;17.35;;;16.35;;
11531;SDS011;5822;51.000;5.874;2023-10-08T09:56:35;16.08;;;15.27;;
11531;SDS011;5822;51.000;5.874;2023-10-08T09:59:03;16.90;;;16.00;;
11531;SDS011;5822;51.000;5.874;2023-10-08T10:01:29;17.10;;;16.20;;
11531;SDS011;5822;51.000;5.874;2023-10-08T10:03:57;17.20;;;16.20;;
11531;SDS011;5822;51.000;5.874;2023-10-08T10:06:26;16.70;;;15.80;;
11531;SDS011;5822;51.000;5.874;2023-10-08T10:08:55;16.52;;;15.63;;
11531;SDS011;5822;51.000;5.874;2023-10-08T10:11:25;16.50;;;15.70;;
11531;SDS011;5822;51.000;5.874;2023-10-08T10:13:59;16.65;;;15.75;;
11531;SDS011;5822;51.000;5.874;2023-10-08T10:16:25;16.67;;;15.77;;
11531;SDS011;5822;51.000;5.874;2023-10-08T10:18:55;17.20;;;16.30;;
11531;SDS011;5822;51.000;5.874;2023-10-08T10:21:25;16.90;;;16.00;;
11531;SDS011;5822;51.000;5.874;2023-10-08T10:23:58;16.77;;;15.88;;
11531;SDS011;5822;51.000;5.874;2023-10-08T10:26:28;16.85;;;15.95;;
11531;SDS011;5822;51.000;5.874;2023-10-08T10:31:49;16.15;;;15.35;;
11531;SDS011;5822;51.000;5.874;2023-10-08T10:34:20;16.35;;;15.45;;
11531;SDS011;5822;51.000;5.874;2023-10-08T10:36:50;16.47;;;15.57;;
11531;SDS011;5822;51.000;5.874;2023-10-08T10:39:21;17.08;;;16.17;;
11531;SDS011;5822;51.000;5.874;2023-10-08T10:41:57;16.85;;;15.95;;
11531;SDS011;5822;51.000;5.874;2023-10-08T10:44:26;16.67;;;15.77;;
11531;SDS011;5822;51.000;5.874;2023-10-08T10:46:55;16.58;;;15.68;;
11531;SDS011;5822;51.000;5.874;2023-10-08T10:49:40;17.00;;;16.00;;
11531;SDS011;5822;51.000;5.874;2023-10-08T10:52:27;17.00;;;16.00;;
11531;SDS011;5822;51.000;5.874;2023-10-08T10:55:01;16.85;;;15.95;;
11531;SDS011;5822;51.000;5.874;2023-10-08T10:57:44;16.42;;;15.52;;
11531;SDS011;5822;51.000;5.874;2023-10-08T11:00:28;17.00;;;16.10;;
11531;SDS011;5822;51.000;5.874;2023-10-08T11:02:57;16.70;;;15.80;;
11531;SDS011;5822;51.000;5.874;2023-10-08T11:05:31;16.80;;;15.90;;
11531;SDS011;5822;51.000;5.874;2023-10-08T11:08:02;16.50;;;15.60;;
11531;SDS011;5822;51.000;5.874;2023-10-08T11:10:34;15.57;;;14.77;;
11531;SDS011;5822;51.000;5.874;2023-10-08T11:13:04;16.40;;;15.50;;
11531;SDS011;5822;51.000;5.874;2023-10-08T11:15:40;16.37;;;15.57;;
11531;SDS011;5822;51.000;5.874;2023-10-08T11:18:07;16.30;;;15.40;;
11531;SDS011;5822;51.000;5.874;2023-10-08T11:20:40;16.70;;;15.70;;
11531;SDS011;5822;51.000;5.874;2023-10-08T11:23:09;17.08;;;16.17;;
11531;SDS011;5822;51.000;5.874;2023-10-08T11:25:58;17.17;;;16.27;;
11531;SDS011;5822;51.000;5.874;2023-10-08T11:31:05;16.90;;;16.00;;
11531;SDS011;5822;51.000;5.874;2023-10-08T11:33:35;17.40;;;16.50;;
11531;SDS011;5822;51.000;5.874;2023-10-08T11:36:06;18.92;;;17.92;;
11531;SDS011;5822;51.000;5.874;2023-10-08T11:38:52;22.58;;;21.27;;
11531;SDS011;5822;51.000;5.874;2023-10-08T11:41:25;19.77;;;18.77;;
11531;SDS011;5822;51.000;5.874;2023-10-08T11:43:53;18.30;;;17.40;;
11531;SDS011;5822;51.000;5.874;2023-10-08T11:49:06;18.20;;;17.30;;
11531;SDS011;5822;51.000;5.874;2023-10-08T11:51:43;18.23;;;17.33;;
11531;SDS011;5822;51.000;5.874;2023-10-08T11:54:10;18.73;;;17.73;;
11531;SDS011;5822;51.000;5.874;2023-10-08T11:56:37;18.85;;;17.85;;
11531;SDS011;5822;51.000;5.874;2023-10-08T11:59:04;18.17;;;17.27;;
11531;SDS011;5822;51.000;5.874;2023-10-08T12:01:34;17.73;;;16.83;;
11531;SDS011;5822;51.000;5.874;2023-10-08T12:04:02;18.05;;;17.15;;
11531;SDS011;5822;51.000;5.874;2023-10-08T12:06:28;18.70;;;17.80;;
11531;SDS011;5822;51.000;5.874;2023-10-08T12:08:58;18.50;;;17.60;;
11531;SDS011;5822;51.000;5.874;2023-10-08T12:11:26;17.50;;;16.70;;
11531;SDS011;5822;51.000;5.874;2023-10-08T12:13:58;18.00;;;17.10;;
11531;SDS011;5822;51.000;5.874;2023-10-08T12:16:25;17.90;;;17.00;;
11531;SDS011;5822;51.000;5.874;2023-10-08T12:18:54;18.17;;;17.27;;
11531;SDS011;5822;51.000;5.874;2023-10-08T12:21:27;18.38;;;17.48;;
11531;SDS011;5822;51.000;5.874;2023-10-08T12:23:59;18.38;;;17.48;;
11531;SDS011;5822;51.000;5.874;2023-10-08T12:26:30;18.10;;;17.20;;
11531;SDS011;5822;51.000;5.874;2023-10-08T12:28:56;17.88;;;16.98;;
11531;SDS011;5822;51.000;5.874;2023-10-08T12:31:23;18.30;;;17.40;;
11531;SDS011;5822;51.000;5.874;2023-10-08T12:33:52;18.63;;;17.73;;
11531;SDS011;5822;51.000;5.874;2023-10-08T12:36:21;18.50;;;17.60;;
11531;SDS011;5822;51.000;5.874;2023-10-08T12:38:51;17.63;;;16.77;;
11531;SDS011;5822;51.000;5.874;2023-10-08T12:41:24;18.13;;;17.23;;
11531;SDS011;5822;51.000;5.874;2023-10-08T12:43:52;18.52;;;17.63;;
11531;SDS011;5822;51.000;5.874;2023-10-08T12:46:18;18.08;;;17.27;;
11531;SDS011;5822;51.000;5.874;2023-10-08T12:48:49;18.00;;;17.20;;
11531;SDS011;5822;51.000;5.874;2023-10-08T12:51:20;17.65;;;16.75;;
11531;SDS011;5822;51.000;5.874;2023-10-08T12:53:49;17.65;;;16.83;;
11531;SDS011;5822;51.000;5.874;2023-10-08T12:56:16;18.00;;;17.17;;
11531;SDS011;5822;51.000;5.874;2023-10-08T12:58:46;17.20;;;16.40;;
11531;SDS011;5822;51.000;5.874;2023-10-08T13:01:16;17.45;;;16.60;;
11531;SDS011;5822;51.000;5.874;2023-10-08T13:03:45;17.92;;;17.02;;
11531;SDS011;5822;51.000;5.874;2023-10-08T13:06:17;17.80;;;16.90;;
11531;SDS011;5822;51.000;5.874;2023-10-08T13:08:50;18.30;;;17.40;;
11531;SDS011;5822;51.000;5.874;2023-10-08T13:11:20;18.67;;;17.67;;
11531;SDS011;5822;51.000;5.874;2023-10-08T13:13:48;18.25;;;17.35;;
11531;SDS011;5822;51.000;5.874;2023-10-08T13:16:18;18.15;;;17.25;;
11531;SDS011;5822;51.000;5.874;2023-10-08T13:18:47;17.27;;;16.48;;
11531;SDS011;5822;51.000;5.874;2023-10-08T13:21:14;17.80;;;16.90;;
11531;SDS011;5822;51.000;5.874;2023-10-08T13:23:39;17.63;;;16.73;;
11531;SDS011;5822;51.000;5.874;2023-10-08T13:26:06;18.20;;;17.30;;
11531;SDS011;5822;51.000;5.874;2023-10-08T13:28:33;19.05;;;18.05;;
11531;SDS011;5822;51.000;5.874;2023-10-08T13:31:04;19.77;;;18.77;;
11531;SDS011;5822;51.000;5.874;2023-10-08T13:33:41;17.33;;;16.52;;
11531;SDS011;5822;51.000;5.874;2023-10-08T13:36:08;16.10;;;15.30;;
11531;SDS011;5822;51.000;5.874;2023-10-08T13:38:35;15.90;;;15.10;;
11531;SDS011;5822;51.000;5.874;2023-10-08T13:41:02;16.38;;;15.57;;
11531;SDS011;5822;51.000;5.874;2023-10-08T13:43:34;16.92;;;16.02;;
11531;SDS011;5822;51.000;5.874;2023-10-08T13:46:01;16.88;;;16.08;;
11531;SDS011;5822;51.000;5.874;2023-10-08T13:48:32;16.55;;;15.75;;
11531;SDS011;5822;51.000;5.874;2023-10-08T13:51:02;16.33;;;15.53;;
11531;SDS011;5822;51.000;5.874;2023-10-08T13:53:31;16.48;;;15.68;;
11531;SDS011;5822;51.000;5.874;2023-10-08T13:55:58;16.67;;;15.88;;
11531;SDS011;5822;51.000;5.874;2023-10-08T13:58:26;16.40;;;15.60;;
11531;SDS011;5822;51.000;5.874;2023-10-08T14:00:53;16.17;;;15.48;;
11531;SDS011;5822;51.000;5.874;2023-10-08T14:03:19;16.55;;;15.75;;
11531;SDS011;5822;51.000;5.874;2023-10-08T14:05:47;15.60;;;14.80;;
11531;SDS011;5822;51.000;5.874;2023-10-08T14:08:17;15.35;;;14.65;;
11531;SDS011;5822;51.000;5.874;2023-10-08T14:10:43;15.40;;;14.68;;
11531;SDS011;5822;51.000;5.874;2023-10-08T14:13:10;15.32;;;14.60;;
11531;SDS011;5822;51.000;5.874;2023-10-08T14:15:36;15.68;;;14.88;;
11531;SDS011;5822;51.000;5.874;2023-10-08T14:18:09;15.90;;;15.10;;
11531;SDS011;5822;51.000;5.874;2023-10-08T14:20:39;16.30;;;15.50;;
11531;SDS011;5822;51.000;5.874;2023-10-08T14:23:06;16.17;;;15.38;;
11531;SDS011;5822;51.000;5.874;2023-10-08T14:25:31;16.40;;;15.60;;
11531;SDS011;5822;51.000;5.874;2023-10-08T14:27:59;16.20;;;15.40;;
11531;SDS011;5822;51.000;5.874;2023-10-08T14:30:30;15.32;;;14.63;;
11531;SDS011;5822;51.000;5.874;2023-10-08T14:32:58;15.43;;;14.73;;
11531;SDS011;5822;51.000;5.874;2023-10-08T14:35:24;15.47;;;14.73;;
11531;SDS011;5822;51.000;5.874;2023-10-08T14:38:08;15.93;;;15.13;;
11531;SDS011;5822;51.000;5.874;2023-10-08T14:40:52;15.77;;;14.98;;
11531;SDS011;5822;51.000;5.874;2023-10-08T14:43:36;15.45;;;14.65;;
11531;SDS011;5822;51.000;5.874;2023-10-08T14:46:03;15.40;;;14.70;;
11531;SDS011;5822;51.000;5.874;2023-10-08T14:48:34;15.20;;;14.48;;
11531;SDS011;5822;51.000;5.874;2023-10-08T14:51:00;15.65;;;14.85;;
11531;SDS011;5822;51.000;5.874;2023-10-08T14:53:28;15.50;;;14.70;;
11531;SDS011;5822;51.000;5.874;2023-10-08T14:55:56;15.35;;;14.65;;
11531;SDS011;5822;51.000;5.874;2023-10-08T14:58:22;15.10;;;14.40;;
11531;SDS011;5822;51.000;5.874;2023-10-08T15:00:48;14.80;;;14.10;;
11531;SDS011;5822;51.000;5.874;2023-10-08T15:03:14;15.20;;;14.50;;
11531;SDS011;5822;51.000;5.874;2023-10-08T15:05:39;14.80;;;14.10;;
11531;SDS011;5822;51.000;5.874;2023-10-08T15:08:08;15.20;;;14.50;;
11531;SDS011;5822;51.000;5.874;2023-10-08T15:10:39;15.20;;;14.48;;
11531;SDS011;5822;51.000;5.874;2023-10-08T15:13:06;16.17;;;15.38;;
11531;SDS011;5822;51.000;5.874;2023-10-08T15:15:32;16.20;;;15.40;;
11531;SDS011;5822;51.000;5.874;2023-10-08T15:17:59;16.10;;;15.30;;